sensor_id;sensor_type;location;lat;lon;timestamp;temperature;humidity
5930;DHT22;2990;48.746;9.236;2023-04-15T00:01:27;5.80;99.90
5930;DHT22;2990;48.746;9.236;2023-04-15T00:03:54;5.90;99.90
5930;DHT22;2990;48.746;9.236;2023-04-15T00:06:23;5.90;99.90
5930;DHT22;2990;48.746;9.236;2023-04-15T00:08:50;5.90;1.00
5930;DHT22;2990;48.746;9.236;2023-04-15T00:11:16;5.90;99.90
5930;DHT22;2990;48.746;9.236;2023-04-15T00:13:45;5.90;99.90
5930;DHT22;2990;48.746;9.236;2023-04-15T00:16:11;5.90;99.90
5930;DHT22;2990;48.746;9.236;2023-04-15T00:18:37;5.90;1.00
5930;DHT22;2990;48.746;9.236;2023-04-15T00:21:03;5.90;1.00
5930;DHT22;2990;48.746;9.236;2023-04-15T00:23:29;5.90;1.00
5930;DHT22;2990;48.746;9.236;2023-04-15T00:25:55;5.80;1.00
5930;DHT22;2990;48.746;9.236;2023-04-15T00:28:21;5.90;1.00
5930;DHT22;2990;48.746;9.236;2023-04-15T00:30:49;5.70;1.00
5930;DHT22;2990;48.746;9.236;2023-04-15T00:33:18;5.70;1.00
5930;DHT22;2990;48.746;9.236;2023-04-15T00:35:44;5.70;1.00
5930;DHT22;2990;48.746;9.236;2023-04-15T00:38:09;5.60;1.00
5930;DHT22;2990;48.746;9.236;2023-04-15T00:40:35;5.60;1.00
5930;DHT22;2990;48.746;9.236;2023-04-15T00:43:01;5.60;1.00
5930;DHT22;2990;48.746;9.236;2023-04-15T00:47:53;5.40;20.90
5930;DHT22;2990;48.746;9.236;2023-04-15T00:50:20;5.50;99.90
5930;DHT22;2990;48.746;9.236;2023-04-15T00:52:46;5.30;99.90
5930;DHT22;2990;48.746;9.236;2023-04-15T00:55:11;5.30;1.00
5930;DHT22;2990;48.746;9.236;2023-04-15T00:57:38;5.40;1.00
5930;DHT22;2990;48.746;9.236;2023-04-15T01:00:05;5.00;25.50
5930;DHT22;2990;48.746;9.236;2023-04-15T01:02:35;5.10;99.90
5930;DHT22;2990;48.746;9.236;2023-04-15T01:05:02;5.00;99.90
5930;DHT22;2990;48.746;9.236;2023-04-15T01:07:32;5.00;1.00
5930;DHT22;2990;48.746;9.236;2023-04-15T01:09:58;5.10;1.00
5930;DHT22;2990;48.746;9.236;2023-04-15T01:12:25;5.10;1.00
5930;DHT22;2990;48.746;9.236;2023-04-15T01:14:53;5.20;1.00
5930;DHT22;2990;48.746;9.236;2023-04-15T01:17:18;5.10;1.00
5930;DHT22;2990;48.746;9.236;2023-04-15T01:19:44;5.10;1.00
5930;DHT22;2990;48.746;9.236;2023-04-15T01:22:13;5.00;99.90
5930;DHT22;2990;48.746;9.236;2023-04-15T01:24:39;5.00;24.30
5930;DHT22;2990;48.746;9.236;2023-04-15T01:27:05;5.00;99.90
5930;DHT22;2990;48.746;9.236;2023-04-15T01:29:35;5.00;64.30
5930;DHT22;2990;48.746;9.236;2023-04-15T01:32:01;4.90;10.10
5930;DHT22;2990;48.746;9.236;2023-04-15T01:34:30;5.10;52.80
5930;DHT22;2990;48.746;9.236;2023-04-15T01:36:56;4.90;43.90
5930;DHT22;2990;48.746;9.236;2023-04-15T01:39:25;4.90;24.10
5930;DHT22;2990;48.746;9.236;2023-04-15T01:41:50;5.00;1.00
5930;DHT22;2990;48.746;9.236;2023-04-15T01:44:19;4.80;1.00
5930;DHT22;2990;48.746;9.236;2023-04-15T01:46:45;4.80;1.00
5930;DHT22;2990;48.746;9.236;2023-04-15T01:49:12;4.70;99.90
5930;DHT22;2990;48.746;9.236;2023-04-15T01:51:38;4.80;99.90
5930;DHT22;2990;48.746;9.236;2023-04-15T01:54:07;4.80;1.00
5930;DHT22;2990;48.746;9.236;2023-04-15T01:56:33;4.60;1.00
5930;DHT22;2990;48.746;9.236;2023-04-15T01:58:59;4.50;22.50
5930;DHT22;2990;48.746;9.236;2023-04-15T02:01:24;4.50;99.90
5930;DHT22;2990;48.746;9.236;2023-04-15T02:03:50;4.40;99.90
5930;DHT22;2990;48.746;9.236;2023-04-15T02:06:16;4.20;99.90
5930;DHT22;2990;48.746;9.236;2023-04-15T02:08:42;4.30;1.00
5930;DHT22;2990;48.746;9.236;2023-04-15T02:11:08;4.30;1.00
5930;DHT22;2990;48.746;9.236;2023-04-15T02:13:36;4.30;99.90
5930;DHT22;2990;48.746;9.236;2023-04-15T02:16:02;4.30;1.00
5930;DHT22;2990;48.746;9.236;2023-04-15T02:18:28;4.30;99.90
5930;DHT22;2990;48.746;9.236;2023-04-15T02:20:53;4.50;1.00
5930;DHT22;2990;48.746;9.236;2023-04-15T02:23:21;4.50;1.00
5930;DHT22;2990;48.746;9.236;2023-04-15T02:25:47;4.40;1.00
5930;DHT22;2990;48.746;9.236;2023-04-15T02:28:12;4.50;99.90
5930;DHT22;2990;48.746;9.236;2023-04-15T02:30:38;4.40;1.00
5930;DHT22;2990;48.746;9.236;2023-04-15T02:33:05;4.40;1.00
5930;DHT22;2990;48.746;9.236;2023-04-15T02:35:32;4.40;99.90
5930;DHT22;2990;48.746;9.236;2023-04-15T02:37:58;4.40;99.90
5930;DHT22;2990;48.746;9.236;2023-04-15T02:40:26;4.30;99.90
5930;DHT22;2990;48.746;9.236;2023-04-15T02:42:51;4.30;99.90
5930;DHT22;2990;48.746;9.236;2023-04-15T02:45:17;4.20;1.00
5930;DHT22;2990;48.746;9.236;2023-04-15T02:47:48;4.20;1.00
5930;DHT22;2990;48.746;9.236;2023-04-15T02:50:17;4.20;7.60
5930;DHT22;2990;48.746;9.236;2023-04-15T02:52:46;4.20;99.90
5930;DHT22;2990;48.746;9.236;2023-04-15T02:55:11;4.20;99.90
5930;DHT22;2990;48.746;9.236;2023-04-15T02:57:48;4.20;98.10
5930;DHT22;2990;48.746;9.236;2023-04-15T03:00:14;4.00;1.00
5930;DHT22;2990;48.746;9.236;2023-04-15T03:02:40;4.20;1.00
5930;DHT22;2990;48.746;9.236;2023-04-15T03:05:11;4.20;1.00
5930;DHT22;2990;48.746;9.236;2023-04-15T03:07:37;4.40;99.90
5930;DHT22;2990;48.746;9.236;2023-04-15T03:10:04;4.20;1.00
5930;DHT22;2990;48.746;9.236;2023-04-15T03:12:30;4.30;1.00
5930;DHT22;2990;48.746;9.236;2023-04-15T03:15:02;4.40;99.90
5930;DHT22;2990;48.746;9.236;2023-04-15T03:17:30;4.50;60.40
5930;DHT22;2990;48.746;9.236;2023-04-15T03:19:56;4.50;1.00
5930;DHT22;2990;48.746;9.236;2023-04-15T03:22:22;4.50;99.90
5930;DHT22;2990;48.746;9.236;2023-04-15T03:24:50;4.50;99.90
5930;DHT22;2990;48.746;9.236;2023-04-15T03:27:18;4.40;99.90
5930;DHT22;2990;48.746;9.236;2023-04-15T03:29:49;4.30;99.90
5930;DHT22;2990;48.746;9.236;2023-04-15T03:32:18;4.20;1.00
5930;DHT22;2990;48.746;9.236;2023-04-15T03:34:46;4.40;1.00
5930;DHT22;2990;48.746;9.236;2023-04-15T03:37:15;4.10;1.00
5930;DHT22;2990;48.746;9.236;2023-04-15T03:39:43;4.10;1.00
5930;DHT22;2990;48.746;9.236;2023-04-15T03:42:12;4.30;1.00
5930;DHT22;2990;48.746;9.236;2023-04-15T03:44:43;4.00;1.00
5930;DHT22;2990;48.746;9.236;2023-04-15T03:47:11;4.10;99.90
5930;DHT22;2990;48.746;9.236;2023-04-15T03:49:40;4.10;1.00
5930;DHT22;2990;48.746;9.236;2023-04-15T03:52:06;4.00;99.90
5930;DHT22;2990;48.746;9.236;2023-04-15T03:54:37;4.10;99.90
5930;DHT22;2990;48.746;9.236;2023-04-15T03:57:02;4.00;1.00
5930;DHT22;2990;48.746;9.236;2023-04-15T03:59:28;4.00;1.00
5930;DHT22;2990;48.746;9.236;2023-04-15T04:01:54;4.00;99.90
5930;DHT22;2990;48.746;9.236;2023-04-15T04:04:22;3.90;99.90
5930;DHT22;2990;48.746;9.236;2023-04-15T04:06:48;3.90;99.90
5930;DHT22;2990;48.746;9.236;2023-04-15T04:09:13;3.80;22.70
5930;DHT22;2990;48.746;9.236;2023-04-15T04:11:42;3.80;99.90
5930;DHT22;2990;48.746;9.236;2023-04-15T04:14:09;3.60;1.00
5930;DHT22;2990;48.746;9.236;2023-04-15T04:16:35;3.60;1.00
5930;DHT22;2990;48.746;9.236;2023-04-15T04:19:01;3.50;1.00
5930;DHT22;2990;48.746;9.236;2023-04-15T04:21:27;3.30;81.80
5930;DHT22;2990;48.746;9.236;2023-04-15T04:23:53;3.40;1.00
5930;DHT22;2990;48.746;9.236;2023-04-15T04:26:18;3.40;1.00
5930;DHT22;2990;48.746;9.236;2023-04-15T04:28:44;3.30;1.00
5930;DHT22;2990;48.746;9.236;2023-04-15T04:31:10;3.30;99.90
5930;DHT22;2990;48.746;9.236;2023-04-15T04:33:36;3.20;99.90
5930;DHT22;2990;48.746;9.236;2023-04-15T04:36:05;3.30;99.90
5930;DHT22;2990;48.746;9.236;2023-04-15T04:38:33;3.20;1.00
5930;DHT22;2990;48.746;9.236;2023-04-15T04:40:59;3.50;1.00
5930;DHT22;2990;48.746;9.236;2023-04-15T04:43:25;3.20;1.00
5930;DHT22;2990;48.746;9.236;2023-04-15T04:45:51;3.10;99.90
5930;DHT22;2990;48.746;9.236;2023-04-15T04:48:17;3.10;99.90
5930;DHT22;2990;48.746;9.236;2023-04-15T04:50:43;3.10;99.90
5930;DHT22;2990;48.746;9.236;2023-04-15T04:53:09;3.00;1.00
5930;DHT22;2990;48.746;9.236;2023-04-15T04:55:38;3.10;99.90
5930;DHT22;2990;48.746;9.236;2023-04-15T04:58:04;3.00;99.90
5930;DHT22;2990;48.746;9.236;2023-04-15T05:00:32;2.90;99.90
5930;DHT22;2990;48.746;9.236;2023-04-15T05:03:02;2.80;99.90
5930;DHT22;2990;48.746;9.236;2023-04-15T05:05:28;2.90;1.00
5930;DHT22;2990;48.746;9.236;2023-04-15T05:07:53;2.80;1.00
5930;DHT22;2990;48.746;9.236;2023-04-15T05:10:19;3.10;1.00
5930;DHT22;2990;48.746;9.236;2023-04-15T05:12:45;2.80;1.00
5930;DHT22;2990;48.746;9.236;2023-04-15T05:15:11;3.10;1.00
5930;DHT22;2990;48.746;9.236;2023-04-15T05:17:37;2.80;1.00
5930;DHT22;2990;48.746;9.236;2023-04-15T05:20:06;3.00;1.00
5930;DHT22;2990;48.746;9.236;2023-04-15T05:22:31;2.90;1.00
5930;DHT22;2990;48.746;9.236;2023-04-15T05:24:57;2.90;99.90
5930;DHT22;2990;48.746;9.236;2023-04-15T05:27:23;2.90;99.90
5930;DHT22;2990;48.746;9.236;2023-04-15T05:29:49;2.90;99.90
5930;DHT22;2990;48.746;9.236;2023-04-15T05:32:15;2.90;99.90
5930;DHT22;2990;48.746;9.236;2023-04-15T05:34:41;3.00;42.20
5930;DHT22;2990;48.746;9.236;2023-04-15T05:37:09;3.00;99.90
5930;DHT22;2990;48.746;9.236;2023-04-15T05:39:35;3.10;1.00
5930;DHT22;2990;48.746;9.236;2023-04-15T05:42:01;3.20;1.00
5930;DHT22;2990;48.746;9.236;2023-04-15T05:44:27;3.20;1.20
5930;DHT22;2990;48.746;9.236;2023-04-15T05:46:56;3.40;99.90
5930;DHT22;2990;48.746;9.236;2023-04-15T05:49:22;3.50;1.00
5930;DHT22;2990;48.746;9.236;2023-04-15T05:51:48;3.60;1.00
5930;DHT22;2990;48.746;9.236;2023-04-15T05:54:14;3.70;1.00
5930;DHT22;2990;48.746;9.236;2023-04-15T05:56:42;3.80;1.00
5930;DHT22;2990;48.746;9.236;2023-04-15T05:59:08;3.80;99.90
5930;DHT22;2990;48.746;9.236;2023-04-15T06:01:36;3.90;99.90
5930;DHT22;2990;48.746;9.236;2023-04-15T06:04:02;4.30;99.90
5930;DHT22;2990;48.746;9.236;2023-04-15T06:06:28;4.40;1.00
5930;DHT22;2990;48.746;9.236;2023-04-15T06:08:54;4.50;1.00
5930;DHT22;2990;48.746;9.236;2023-04-15T06:11:20;4.80;99.90
5930;DHT22;2990;48.746;9.236;2023-04-15T06:13:46;4.90;99.90
5930;DHT22;2990;48.746;9.236;2023-04-15T06:16:12;5.30;1.00
5930;DHT22;2990;48.746;9.236;2023-04-15T06:18:40;5.20;1.00
5930;DHT22;2990;48.746;9.236;2023-04-15T06:21:06;5.30;1.00
5930;DHT22;2990;48.746;9.236;2023-04-15T06:23:35;5.40;99.90
5930;DHT22;2990;48.746;9.236;2023-04-15T06:26:01;5.60;99.90
5930;DHT22;2990;48.746;9.236;2023-04-15T06:28:31;5.80;99.90
5930;DHT22;2990;48.746;9.236;2023-04-15T06:31:02;5.80;99.90
5930;DHT22;2990;48.746;9.236;2023-04-15T06:33:45;6.00;1.00
5930;DHT22;2990;48.746;9.236;2023-04-15T06:36:11;6.10;99.90
5930;DHT22;2990;48.746;9.236;2023-04-15T06:38:37;6.20;39.70
5930;DHT22;2990;48.746;9.236;2023-04-15T06:41:03;6.30;15.10
5930;DHT22;2990;48.746;9.236;2023-04-15T06:43:32;6.40;1.00
5930;DHT22;2990;48.746;9.236;2023-04-15T06:45:57;6.40;99.90
5930;DHT22;2990;48.746;9.236;2023-04-15T06:48:23;6.50;1.00
5930;DHT22;2990;48.746;9.236;2023-04-15T06:50:51;6.50;1.00
5930;DHT22;2990;48.746;9.236;2023-04-15T06:53:17;6.60;1.00
5930;DHT22;2990;48.746;9.236;2023-04-15T06:55:46;6.60;1.00
5930;DHT22;2990;48.746;9.236;2023-04-15T06:58:12;6.60;1.00
5930;DHT22;2990;48.746;9.236;2023-04-15T07:00:37;6.70;1.00
5930;DHT22;2990;48.746;9.236;2023-04-15T07:03:04;6.90;1.00
5930;DHT22;2990;48.746;9.236;2023-04-15T07:05:30;6.80;1.00
5930;DHT22;2990;48.746;9.236;2023-04-15T07:07:56;7.00;1.00
5930;DHT22;2990;48.746;9.236;2023-04-15T07:10:22;7.00;1.00
5930;DHT22;2990;48.746;9.236;2023-04-15T07:12:48;7.10;1.00
5930;DHT22;2990;48.746;9.236;2023-04-15T07:15:18;7.20;1.00
5930;DHT22;2990;48.746;9.236;2023-04-15T07:17:43;7.20;99.90
5930;DHT22;2990;48.746;9.236;2023-04-15T07:20:09;7.40;99.90
5930;DHT22;2990;48.746;9.236;2023-04-15T07:22:35;7.20;99.90
5930;DHT22;2990;48.746;9.236;2023-04-15T07:25:04;7.50;1.00
5930;DHT22;2990;48.746;9.236;2023-04-15T07:27:33;7.40;1.00
5930;DHT22;2990;48.746;9.236;2023-04-15T07:30:03;7.40;1.00
5930;DHT22;2990;48.746;9.236;2023-04-15T07:32:37;7.40;1.00
5930;DHT22;2990;48.746;9.236;2023-04-15T07:35:03;7.50;1.00
5930;DHT22;2990;48.746;9.236;2023-04-15T07:37:29;7.50;1.00
5930;DHT22;2990;48.746;9.236;2023-04-15T07:40:07;7.50;1.00
5930;DHT22;2990;48.746;9.236;2023-04-15T07:42:36;7.50;1.00
5930;DHT22;2990;48.746;9.236;2023-04-15T07:45:04;7.40;1.00
5930;DHT22;2990;48.746;9.236;2023-04-15T07:47:31;7.50;1.00
5930;DHT22;2990;48.746;9.236;2023-04-15T07:49:59;7.50;1.00
5930;DHT22;2990;48.746;9.236;2023-04-15T07:52:26;7.60;1.00
5930;DHT22;2990;48.746;9.236;2023-04-15T07:54:52;7.70;1.00
5930;DHT22;2990;48.746;9.236;2023-04-15T07:57:20;7.70;1.00
5930;DHT22;2990;48.746;9.236;2023-04-15T07:59:48;7.90;1.00
5930;DHT22;2990;48.746;9.236;2023-04-15T08:02:14;8.00;1.00
5930;DHT22;2990;48.746;9.236;2023-04-15T08:04:40;8.40;99.90
5930;DHT22;2990;48.746;9.236;2023-04-15T08:07:05;8.40;99.90
5930;DHT22;2990;48.746;9.236;2023-04-15T08:09:31;8.60;99.90
5930;DHT22;2990;48.746;9.236;2023-04-15T08:11:57;8.80;99.90
5930;DHT22;2990;48.746;9.236;2023-04-15T08:14:25;8.90;9.00
5930;DHT22;2990;48.746;9.236;2023-04-15T08:16:51;9.20;1.00
5930;DHT22;2990;48.746;9.236;2023-04-15T08:19:17;9.40;1.00
5930;DHT22;2990;48.746;9.236;2023-04-15T08:21:48;9.50;1.00
5930;DHT22;2990;48.746;9.236;2023-04-15T08:24:14;9.50;1.00
5930;DHT22;2990;48.746;9.236;2023-04-15T08:26:39;9.70;1.00
5930;DHT22;2990;48.746;9.236;2023-04-15T08:31:32;9.70;1.00
5930;DHT22;2990;48.746;9.236;2023-04-15T08:34:03;10.40;1.00
5930;DHT22;2990;48.746;9.236;2023-04-15T08:36:29;10.80;1.00
5930;DHT22;2990;48.746;9.236;2023-04-15T08:38:55;11.00;1.00
5930;DHT22;2990;48.746;9.236;2023-04-15T08:41:22;11.30;1.00
5930;DHT22;2990;48.746;9.236;2023-04-15T08:44:12;11.50;1.00
5930;DHT22;2990;48.746;9.236;2023-04-15T08:46:46;12.00;99.90
5930;DHT22;2990;48.746;9.236;2023-04-15T08:49:12;12.30;99.90
5930;DHT22;2990;48.746;9.236;2023-04-15T08:51:39;12.40;99.90
5930;DHT22;2990;48.746;9.236;2023-04-15T08:54:07;12.60;99.90
5930;DHT22;2990;48.746;9.236;2023-04-15T08:56:33;12.80;99.90
5930;DHT22;2990;48.746;9.236;2023-04-15T08:58:59;13.10;99.90
5930;DHT22;2990;48.746;9.236;2023-04-15T09:01:25;13.50;99.90
5930;DHT22;2990;48.746;9.236;2023-04-15T09:03:52;13.40;99.90
5930;DHT22;2990;48.746;9.236;2023-04-15T09:06:21;13.80;99.90
5930;DHT22;2990;48.746;9.236;2023-04-15T09:08:48;13.80;99.90
5930;DHT22;2990;48.746;9.236;2023-04-15T09:11:13;13.90;99.90
5930;DHT22;2990;48.746;9.236;2023-04-15T09:13:39;14.30;99.90
5930;DHT22;2990;48.746;9.236;2023-04-15T09:16:05;14.60;99.90
5930;DHT22;2990;48.746;9.236;2023-04-15T09:18:35;15.00;96.50
5930;DHT22;2990;48.746;9.236;2023-04-15T09:21:05;15.00;76.20
5930;DHT22;2990;48.746;9.236;2023-04-15T09:23:33;14.70;68.60
5930;DHT22;2990;48.746;9.236;2023-04-15T09:26:02;14.50;66.20
5930;DHT22;2990;48.746;9.236;2023-04-15T09:28:28;14.30;43.30
5930;DHT22;2990;48.746;9.236;2023-04-15T09:30:55;14.30;49.90
5930;DHT22;2990;48.746;9.236;2023-04-15T09:33:22;14.50;52.90
5930;DHT22;2990;48.746;9.236;2023-04-15T09:36:06;14.70;49.50
5930;DHT22;2990;48.746;9.236;2023-04-15T09:38:31;14.80;47.00
5930;DHT22;2990;48.746;9.236;2023-04-15T09:40:57;15.20;29.80
5930;DHT22;2990;48.746;9.236;2023-04-15T09:43:39;15.50;25.70
5930;DHT22;2990;48.746;9.236;2023-04-15T09:46:05;15.60;15.40
5930;DHT22;2990;48.746;9.236;2023-04-15T09:48:33;15.40;11.20
5930;DHT22;2990;48.746;9.236;2023-04-15T09:51:10;15.10;19.50
5930;DHT22;2990;48.746;9.236;2023-04-15T09:53:36;14.90;24.40
5930;DHT22;2990;48.746;9.236;2023-04-15T09:56:04;14.80;37.20
5930;DHT22;2990;48.746;9.236;2023-04-15T09:58:38;14.60;51.80
5930;DHT22;2990;48.746;9.236;2023-04-15T10:01:09;14.60;51.40
5930;DHT22;2990;48.746;9.236;2023-04-15T10:03:36;14.60;32.60
5930;DHT22;2990;48.746;9.236;2023-04-15T10:06:11;14.40;51.60
5930;DHT22;2990;48.746;9.236;2023-04-15T10:08:37;14.20;58.90
5930;DHT22;2990;48.746;9.236;2023-04-15T10:11:11;14.00;51.70
5930;DHT22;2990;48.746;9.236;2023-04-15T10:13:50;14.00;48.10
5930;DHT22;2990;48.746;9.236;2023-04-15T10:16:35;14.10;7.60
5930;DHT22;2990;48.746;9.236;2023-04-15T10:19:36;13.90;44.50
5930;DHT22;2990;48.746;9.236;2023-04-15T10:22:14;13.80;59.90
5930;DHT22;2990;48.746;9.236;2023-04-15T10:24:55;13.90;53.90
5930;DHT22;2990;48.746;9.236;2023-04-15T10:27:25;13.70;48.60
5930;DHT22;2990;48.746;9.236;2023-04-15T10:29:52;13.60;54.10
5930;DHT22;2990;48.746;9.236;2023-04-15T10:32:21;13.30;68.40
5930;DHT22;2990;48.746;9.236;2023-04-15T10:34:53;13.60;18.70
5930;DHT22;2990;48.746;9.236;2023-04-15T10:37:20;13.70;12.30
5930;DHT22;2990;48.746;9.236;2023-04-15T10:39:46;14.20;1.00
5930;DHT22;2990;48.746;9.236;2023-04-15T10:42:18;14.30;3.60
5930;DHT22;2990;48.746;9.236;2023-04-15T10:44:50;14.40;21.80
5930;DHT22;2990;48.746;9.236;2023-04-15T10:47:23;14.60;16.70
5930;DHT22;2990;48.746;9.236;2023-04-15T10:50:02;14.90;1.30
5930;DHT22;2990;48.746;9.236;2023-04-15T10:52:28;14.90;3.40
5930;DHT22;2990;48.746;9.236;2023-04-15T10:55:21;15.00;24.50
5930;DHT22;2990;48.746;9.236;2023-04-15T10:57:57;14.90;44.70
5930;DHT22;2990;48.746;9.236;2023-04-15T11:00:32;14.50;1.00
5930;DHT22;2990;48.746;9.236;2023-04-15T11:03:08;14.20;42.10
5930;DHT22;2990;48.746;9.236;2023-04-15T11:08:52;14.40;1.00
5930;DHT22;2990;48.746;9.236;2023-04-15T11:11:20;14.60;1.00
5930;DHT22;2990;48.746;9.236;2023-04-15T11:13:52;14.90;1.00
5930;DHT22;2990;48.746;9.236;2023-04-15T11:16:53;14.80;1.00
5930;DHT22;2990;48.746;9.236;2023-04-15T11:19:45;14.80;1.00
5930;DHT22;2990;48.746;9.236;2023-04-15T11:22:58;14.80;1.00
5930;DHT22;2990;48.746;9.236;2023-04-15T11:25:28;14.50;25.10
5930;DHT22;2990;48.746;9.236;2023-04-15T11:28:07;14.60;1.00
5930;DHT22;2990;48.746;9.236;2023-04-15T11:30:38;14.60;1.00
5930;DHT22;2990;48.746;9.236;2023-04-15T11:33:14;14.50;1.00
5930;DHT22;2990;48.746;9.236;2023-04-15T11:35:40;14.70;1.00
5930;DHT22;2990;48.746;9.236;2023-04-15T11:38:20;14.90;1.00
5930;DHT22;2990;48.746;9.236;2023-04-15T11:41:01;15.10;11.40
5930;DHT22;2990;48.746;9.236;2023-04-15T11:43:31;14.70;1.00
5930;DHT22;2990;48.746;9.236;2023-04-15T11:46:04;14.70;1.00
5930;DHT22;2990;48.746;9.236;2023-04-15T11:48:40;15.10;1.00
5930;DHT22;2990;48.746;9.236;2023-04-15T11:51:06;15.40;1.00
5930;DHT22;2990;48.746;9.236;2023-04-15T11:54:01;15.40;10.10
5930;DHT22;2990;48.746;9.236;2023-04-15T11:56:49;15.30;41.90
5930;DHT22;2990;48.746;9.236;2023-04-15T11:59:21;15.00;52.90
5930;DHT22;2990;48.746;9.236;2023-04-15T12:01:52;14.60;65.20
5930;DHT22;2990;48.746;9.236;2023-04-15T12:04:33;14.20;63.90
5930;DHT22;2990;48.746;9.236;2023-04-15T12:07:23;14.00;57.00
5930;DHT22;2990;48.746;9.236;2023-04-15T12:10:36;13.80;40.30
5930;DHT22;2990;48.746;9.236;2023-04-15T12:16:22;13.90;17.90
5930;DHT22;2990;48.746;9.236;2023-04-15T12:18:59;13.90;21.10
5930;DHT22;2990;48.746;9.236;2023-04-15T12:21:36;13.90;29.80
5930;DHT22;2990;48.746;9.236;2023-04-15T12:24:13;14.00;46.30
5930;DHT22;2990;48.746;9.236;2023-04-15T12:26:52;13.90;69.70
5930;DHT22;2990;48.746;9.236;2023-04-15T12:29:32;13.80;83.70
5930;DHT22;2990;48.746;9.236;2023-04-15T12:32:11;13.60;95.70
5930;DHT22;2990;48.746;9.236;2023-04-15T12:35:15;13.30;90.20
5930;DHT22;2990;48.746;9.236;2023-04-15T12:37:43;12.90;94.80
5930;DHT22;2990;48.746;9.236;2023-04-15T12:40:09;12.80;99.90
5930;DHT22;2990;48.746;9.236;2023-04-15T12:42:47;12.10;99.90
5930;DHT22;2990;48.746;9.236;2023-04-15T12:51:13;9.30;1.00
5930;DHT22;2990;48.746;9.236;2023-04-15T13:00:35;8.50;99.90
5930;DHT22;2990;48.746;9.236;2023-04-15T13:03:11;8.30;1.00
5930;DHT22;2990;48.746;9.236;2023-04-15T13:05:58;8.30;1.00
5930;DHT22;2990;48.746;9.236;2023-04-15T13:08:41;8.30;99.90
5930;DHT22;2990;48.746;9.236;2023-04-15T13:11:38;8.40;1.00
5930;DHT22;2990;48.746;9.236;2023-04-15T13:14:08;8.50;99.90
5930;DHT22;2990;48.746;9.236;2023-04-15T13:16:49;8.80;99.90
5930;DHT22;2990;48.746;9.236;2023-04-15T13:19:22;8.90;1.00
5930;DHT22;2990;48.746;9.236;2023-04-15T13:22:14;9.10;99.90
5930;DHT22;2990;48.746;9.236;2023-04-15T13:24:42;9.40;1.00
5930;DHT22;2990;48.746;9.236;2023-04-15T13:27:10;9.50;37.60
5930;DHT22;2990;48.746;9.236;2023-04-15T13:29:43;9.90;99.90
5930;DHT22;2990;48.746;9.236;2023-04-15T13:32:09;9.90;1.00
5930;DHT22;2990;48.746;9.236;2023-04-15T13:34:35;9.80;1.00
5930;DHT22;2990;48.746;9.236;2023-04-15T13:37:09;10.20;99.90
5930;DHT22;2990;48.746;9.236;2023-04-15T13:39:35;10.20;1.00
5930;DHT22;2990;48.746;9.236;2023-04-15T13:42:04;10.20;99.90
5930;DHT22;2990;48.746;9.236;2023-04-15T13:44:33;10.40;1.00
5930;DHT22;2990;48.746;9.236;2023-04-15T13:47:01;10.50;1.00
5930;DHT22;2990;48.746;9.236;2023-04-15T13:49:28;10.80;1.00
5930;DHT22;2990;48.746;9.236;2023-04-15T13:51:59;10.80;1.00
5930;DHT22;2990;48.746;9.236;2023-04-15T13:54:25;10.80;1.00
5930;DHT22;2990;48.746;9.236;2023-04-15T13:56:54;10.70;99.90
5930;DHT22;2990;48.746;9.236;2023-04-15T13:59:24;10.80;99.90
5930;DHT22;2990;48.746;9.236;2023-04-15T14:01:50;10.90;99.90
5930;DHT22;2990;48.746;9.236;2023-04-15T14:04:19;10.90;99.90
5930;DHT22;2990;48.746;9.236;2023-04-15T14:06:45;10.90;99.90
5930;DHT22;2990;48.746;9.236;2023-04-15T14:09:11;11.00;99.90
5930;DHT22;2990;48.746;9.236;2023-04-15T14:11:39;10.90;99.90
5930;DHT22;2990;48.746;9.236;2023-04-15T14:14:05;10.90;99.90
5930;DHT22;2990;48.746;9.236;2023-04-15T14:16:34;10.90;99.90
5930;DHT22;2990;48.746;9.236;2023-04-15T14:19:01;11.10;99.90
5930;DHT22;2990;48.746;9.236;2023-04-15T14:21:27;10.90;99.90
5930;DHT22;2990;48.746;9.236;2023-04-15T14:23:53;10.80;99.90
5930;DHT22;2990;48.746;9.236;2023-04-15T14:26:19;10.70;99.90
5930;DHT22;2990;48.746;9.236;2023-04-15T14:28:45;10.60;99.90
5930;DHT22;2990;48.746;9.236;2023-04-15T14:31:13;10.70;99.90
5930;DHT22;2990;48.746;9.236;2023-04-15T14:33:38;10.80;99.90
5930;DHT22;2990;48.746;9.236;2023-04-15T14:36:05;11.00;99.90
5930;DHT22;2990;48.746;9.236;2023-04-15T14:38:33;11.10;99.90
5930;DHT22;2990;48.746;9.236;2023-04-15T14:41:05;11.30;99.90
5930;DHT22;2990;48.746;9.236;2023-04-15T14:43:31;11.10;99.90
5930;DHT22;2990;48.746;9.236;2023-04-15T14:46:00;11.10;99.90
5930;DHT22;2990;48.746;9.236;2023-04-15T14:48:29;11.00;99.90
5930;DHT22;2990;48.746;9.236;2023-04-15T14:50:55;10.70;99.90
5930;DHT22;2990;48.746;9.236;2023-04-15T14:53:21;10.60;99.90
5930;DHT22;2990;48.746;9.236;2023-04-15T14:55:50;10.50;99.90
5930;DHT22;2990;48.746;9.236;2023-04-15T14:58:18;10.50;99.90
5930;DHT22;2990;48.746;9.236;2023-04-15T15:00:44;10.50;99.90
5930;DHT22;2990;48.746;9.236;2023-04-15T15:03:11;10.40;99.90
5930;DHT22;2990;48.746;9.236;2023-04-15T15:05:41;10.30;99.90
5930;DHT22;2990;48.746;9.236;2023-04-15T15:08:08;10.20;99.90
5930;DHT22;2990;48.746;9.236;2023-04-15T15:10:34;10.10;99.90
5930;DHT22;2990;48.746;9.236;2023-04-15T15:13:02;10.10;99.90
5930;DHT22;2990;48.746;9.236;2023-04-15T15:15:28;10.00;99.90
5930;DHT22;2990;48.746;9.236;2023-04-15T15:17:54;9.90;99.90
5930;DHT22;2990;48.746;9.236;2023-04-15T15:20:23;9.90;99.90
5930;DHT22;2990;48.746;9.236;2023-04-15T15:23:10;9.90;99.90
5930;DHT22;2990;48.746;9.236;2023-04-15T15:25:36;9.80;99.90
5930;DHT22;2990;48.746;9.236;2023-04-15T15:28:01;10.00;99.90
5930;DHT22;2990;48.746;9.236;2023-04-15T15:30:30;9.70;99.90
5930;DHT22;2990;48.746;9.236;2023-04-15T15:32:58;9.60;99.90
5930;DHT22;2990;48.746;9.236;2023-04-15T15:35:50;9.60;99.90
5930;DHT22;2990;48.746;9.236;2023-04-15T15:38:55;9.60;99.90
5930;DHT22;2990;48.746;9.236;2023-04-15T15:41:26;9.40;99.90
5930;DHT22;2990;48.746;9.236;2023-04-15T15:43:52;9.30;99.90
5930;DHT22;2990;48.746;9.236;2023-04-15T15:46:18;9.30;99.90
5930;DHT22;2990;48.746;9.236;2023-04-15T15:48:44;9.20;99.90
5930;DHT22;2990;48.746;9.236;2023-04-15T15:51:09;9.20;99.90
5930;DHT22;2990;48.746;9.236;2023-04-15T15:53:35;9.20;99.90
5930;DHT22;2990;48.746;9.236;2023-04-15T15:56:01;9.10;99.90
5930;DHT22;2990;48.746;9.236;2023-04-15T15:58:29;9.10;99.90
5930;DHT22;2990;48.746;9.236;2023-04-15T16:00:55;9.00;99.90
5930;DHT22;2990;48.746;9.236;2023-04-15T16:03:22;9.10;99.90
5930;DHT22;2990;48.746;9.236;2023-04-15T16:05:53;8.90;1.00
5930;DHT22;2990;48.746;9.236;2023-04-15T16:08:35;9.00;1.00
5930;DHT22;2990;48.746;9.236;2023-04-15T16:14:43;9.00;1.00
5930;DHT22;2990;48.746;9.236;2023-04-15T16:17:28;9.10;1.00
5930;DHT22;2990;48.746;9.236;2023-04-15T16:20:00;8.90;1.00
5930;DHT22;2990;48.746;9.236;2023-04-15T16:22:30;8.80;1.00
5930;DHT22;2990;48.746;9.236;2023-04-15T16:25:00;8.70;40.00
5930;DHT22;2990;48.746;9.236;2023-04-15T16:27:26;8.60;1.00
5930;DHT22;2990;48.746;9.236;2023-04-15T16:29:55;8.50;1.00
5930;DHT22;2990;48.746;9.236;2023-04-15T16:32:20;8.40;1.00
5930;DHT22;2990;48.746;9.236;2023-04-15T16:34:46;8.40;99.90
5930;DHT22;2990;48.746;9.236;2023-04-15T16:37:12;8.30;1.00
5930;DHT22;2990;48.746;9.236;2023-04-15T16:39:38;8.40;1.00
5930;DHT22;2990;48.746;9.236;2023-04-15T16:42:03;8.10;1.00
5930;DHT22;2990;48.746;9.236;2023-04-15T16:44:34;8.00;1.00
5930;DHT22;2990;48.746;9.236;2023-04-15T16:47:00;7.90;1.00
5930;DHT22;2990;48.746;9.236;2023-04-15T16:49:34;7.80;99.90
5930;DHT22;2990;48.746;9.236;2023-04-15T16:52:31;8.00;1.00
5930;DHT22;2990;48.746;9.236;2023-04-15T16:55:06;7.70;1.00
5930;DHT22;2990;48.746;9.236;2023-04-15T16:57:58;7.70;1.00
5930;DHT22;2990;48.746;9.236;2023-04-15T17:00:27;7.80;1.00
5930;DHT22;2990;48.746;9.236;2023-04-15T17:02:54;7.70;1.00